TimePDT,TemperatureF,Dew PointF,Humidity,Sea Level PressureIn,VisibilityMPH,Wind Direction,Wind SpeedMPH,Gust SpeedMPH,PrecipitationIn,Events,Conditions,WindDirDegrees,DateUTC
12:56 AM,66.9,33.1,28,29.90,10.0,WNW,9.2,-,N/A,,Clear,300,2012-10-23 07:56:00
1:56 AM,63.0,34.0,34,29.89,10.0,West,5.8,-,N/A,,Clear,280,2012-10-23 08:56:00
2:56 AM,63.0,30.9,30,29.88,10.0,West,6.9,-,N/A,,Clear,270,2012-10-23 09:56:00
3:56 AM,66.9,39.0,36,29.87,10.0,West,16.1,-,N/A,,Clear,260,2012-10-23 10:56:00
4:56 AM,69.1,41.0,36,29.88,10.0,WSW,11.5,-,N/A,,Clear,240,2012-10-23 11:56:00
5:56 AM,64.0,41.0,43,29.90,10.0,WNW,8.1,-,N/A,,Clear,300,2012-10-23 12:56:00
6:56 AM,64.0,43.0,46,29.92,10.0,West,5.8,-,N/A,,Partly Cloudy,280,2012-10-23 13:56:00
7:56 AM,66.0,46.0,48,29.94,10.0,West,11.5,-,N/A,,Partly Cloudy,260,2012-10-23 14:56:00
8:56 AM,72.0,46.9,41,29.95,10.0,West,15.0,-,N/A,,Scattered Clouds,260,2012-10-23 15:56:00
9:56 AM,73.0,46.0,38,29.95,10.0,West,13.8,-,N/A,,Mostly Cloudy,270,2012-10-23 16:56:00
10:56 AM,75.9,45.0,33,29.94,10.0,West,9.2,-,N/A,,Mostly Cloudy,270,2012-10-23 17:56:00
11:56 AM,80.1,42.1,26,29.92,10.0,West,17.3,-,N/A,,Mostly Cloudy,280,2012-10-23 18:56:00
12:56 PM,84.0,37.9,19,29.88,10.0,West,16.1,23.0,N/A,,Mostly Cloudy,270,2012-10-23 19:56:00
1:56 PM,84.9,39.0,20,29.85,10.0,WNW,18.4,23.0,N/A,,Mostly Cloudy,290,2012-10-23 20:56:00
2:56 PM,86.0,36.0,17,29.84,10.0,West,13.8,-,N/A,,Mostly Cloudy,270,2012-10-23 21:56:00
3:56 PM,84.0,35.1,17,29.83,10.0,WSW,16.1,-,N/A,,Mostly Cloudy,250,2012-10-23 22:56:00
4:56 PM,82.0,37.0,20,29.82,10.0,WSW,16.1,-,N/A,,Mostly Cloudy,250,2012-10-23 23:56:00
5:56 PM,78.1,39.9,25,29.83,10.0,WSW,17.3,-,N/A,,Mostly Cloudy,240,2012-10-24 00:56:00
6:56 PM,73.9,43.0,33,29.85,10.0,WSW,15.0,-,N/A,,Mostly Cloudy,250,2012-10-24 01:56:00
7:56 PM,72.0,42.1,34,29.86,10.0,WSW,15.0,-,N/A,,Mostly Cloudy,250,2012-10-24 02:56:00
8:56 PM,70.0,42.1,36,29.86,10.0,West,11.5,-,N/A,,Mostly Cloudy,260,2012-10-24 03:56:00
9:56 PM,68.0,42.1,39,29.88,10.0,WSW,13.8,-,N/A,,Mostly Cloudy,250,2012-10-24 04:56:00
10:56 PM,63.0,34.0,34,29.88,10.0,WNW,5.8,-,N/A,,Scattered Clouds,300,2012-10-24 05:56:00
11:56 PM,63.0,33.1,33,29.88,10.0,West,12.7,20.7,N/A,,Clear,280,2012-10-24 06:56:00